sensor_id;sensor_type;location;lat;lon;timestamp;temperature;humidity
81321;DHT22;70785;52.570;5.638;2023-08-12T00:02:15;19.40;73.20
81321;DHT22;70785;52.570;5.638;2023-08-12T00:04:41;19.40;73.30
81321;DHT22;70785;52.570;5.638;2023-08-12T00:07:07;19.40;73.30
81321;DHT22;70785;52.570;5.638;2023-08-12T00:09:33;19.30;73.30
81321;DHT22;70785;52.570;5.638;2023-08-12T00:11:59;19.30;73.30
81321;DHT22;70785;52.570;5.638;2023-08-12T00:14:26;19.30;73.40
81321;DHT22;70785;52.570;5.638;2023-08-12T00:16:52;19.30;73.40
81321;DHT22;70785;52.570;5.638;2023-08-12T00:19:18;19.20;73.50
81321;DHT22;70785;52.570;5.638;2023-08-12T00:21:44;19.20;73.50
81321;DHT22;70785;52.570;5.638;2023-08-12T00:24:10;19.20;73.60
81321;DHT22;70785;52.570;5.638;2023-08-12T00:26:36;19.20;73.70
81321;DHT22;70785;52.570;5.638;2023-08-12T00:29:02;19.10;73.80
81321;DHT22;70785;52.570;5.638;2023-08-12T00:31:28;19.10;73.80
81321;DHT22;70785;52.570;5.638;2023-08-12T00:33:55;19.10;73.90
81321;DHT22;70785;52.570;5.638;2023-08-12T00:36:22;19.10;74.00
81321;DHT22;70785;52.570;5.638;2023-08-12T00:38:48;19.10;73.90
81321;DHT22;70785;52.570;5.638;2023-08-12T00:41:14;19.10;74.00
81321;DHT22;70785;52.570;5.638;2023-08-12T00:43:40;19.10;74.00
81321;DHT22;70785;52.570;5.638;2023-08-12T00:46:06;19.10;74.10
81321;DHT22;70785;52.570;5.638;2023-08-12T00:48:32;19.00;74.00
81321;DHT22;70785;52.570;5.638;2023-08-12T00:50:59;19.00;74.10
81321;DHT22;70785;52.570;5.638;2023-08-12T00:53:25;19.00;74.10
81321;DHT22;70785;52.570;5.638;2023-08-12T00:55:51;19.00;74.20
81321;DHT22;70785;52.570;5.638;2023-08-12T00:58:18;19.00;74.20
81321;DHT22;70785;52.570;5.638;2023-08-12T01:00:45;19.00;74.20
81321;DHT22;70785;52.570;5.638;2023-08-12T01:03:11;18.90;74.30
81321;DHT22;70785;52.570;5.638;2023-08-12T01:05:37;18.90;74.40
81321;DHT22;70785;52.570;5.638;2023-08-12T01:08:04;18.80;74.40
81321;DHT22;70785;52.570;5.638;2023-08-12T01:10:34;18.80;74.60
81321;DHT22;70785;52.570;5.638;2023-08-12T01:15:37;18.70;74.90
81321;DHT22;70785;52.570;5.638;2023-08-12T01:18:05;18.80;74.90
81321;DHT22;70785;52.570;5.638;2023-08-12T01:20:32;18.70;74.90
81321;DHT22;70785;52.570;5.638;2023-08-12T01:23:28;18.80;74.90
81321;DHT22;70785;52.570;5.638;2023-08-12T01:25:54;18.80;75.10
81321;DHT22;70785;52.570;5.638;2023-08-12T01:28:20;18.90;74.90
81321;DHT22;70785;52.570;5.638;2023-08-12T01:33:42;18.90;75.00
81321;DHT22;70785;52.570;5.638;2023-08-12T01:36:17;19.00;74.90
81321;DHT22;70785;52.570;5.638;2023-08-12T01:38:44;19.00;74.80
81321;DHT22;70785;52.570;5.638;2023-08-12T01:41:13;19.00;74.70
81321;DHT22;70785;52.570;5.638;2023-08-12T01:43:41;19.00;74.70
81321;DHT22;70785;52.570;5.638;2023-08-12T01:46:08;19.10;74.70
81321;DHT22;70785;52.570;5.638;2023-08-12T01:48:35;19.10;74.70
81321;DHT22;70785;52.570;5.638;2023-08-12T01:51:02;19.10;74.70
81321;DHT22;70785;52.570;5.638;2023-08-12T01:53:29;19.10;74.70
81321;DHT22;70785;52.570;5.638;2023-08-12T01:55:55;19.20;74.70
81321;DHT22;70785;52.570;5.638;2023-08-12T01:58:21;19.20;74.60
81321;DHT22;70785;52.570;5.638;2023-08-12T02:00:47;19.20;74.60
81321;DHT22;70785;52.570;5.638;2023-08-12T02:03:13;19.30;74.50
81321;DHT22;70785;52.570;5.638;2023-08-12T02:05:39;19.30;74.50
81321;DHT22;70785;52.570;5.638;2023-08-12T02:08:06;19.30;74.50
81321;DHT22;70785;52.570;5.638;2023-08-12T02:10:34;19.30;74.50
81321;DHT22;70785;52.570;5.638;2023-08-12T02:13:01;19.30;74.50
81321;DHT22;70785;52.570;5.638;2023-08-12T02:15:29;19.30;74.50
81321;DHT22;70785;52.570;5.638;2023-08-12T02:17:55;19.30;74.50
81321;DHT22;70785;52.570;5.638;2023-08-12T02:20:21;19.30;74.50
81321;DHT22;70785;52.570;5.638;2023-08-12T02:22:47;19.30;74.50
81321;DHT22;70785;52.570;5.638;2023-08-12T02:25:13;19.30;74.50
81321;DHT22;70785;52.570;5.638;2023-08-12T02:27:39;19.40;74.50
81321;DHT22;70785;52.570;5.638;2023-08-12T02:30:06;19.40;74.50
81321;DHT22;70785;52.570;5.638;2023-08-12T02:32:32;19.40;74.50
81321;DHT22;70785;52.570;5.638;2023-08-12T02:34:58;19.40;74.40
81321;DHT22;70785;52.570;5.638;2023-08-12T02:37:24;19.40;74.40
81321;DHT22;70785;52.570;5.638;2023-08-12T02:39:51;19.40;74.40
81321;DHT22;70785;52.570;5.638;2023-08-12T02:42:17;19.40;74.40
81321;DHT22;70785;52.570;5.638;2023-08-12T02:44:43;19.40;74.40
81321;DHT22;70785;52.570;5.638;2023-08-12T02:47:09;19.50;74.40
81321;DHT22;70785;52.570;5.638;2023-08-12T02:49:35;19.40;74.40
81321;DHT22;70785;52.570;5.638;2023-08-12T02:52:01;19.50;74.40
81321;DHT22;70785;52.570;5.638;2023-08-12T02:54:27;19.50;74.40
81321;DHT22;70785;52.570;5.638;2023-08-12T02:56:53;19.50;74.50
81321;DHT22;70785;52.570;5.638;2023-08-12T02:59:19;19.50;74.50
81321;DHT22;70785;52.570;5.638;2023-08-12T03:01:46;19.50;74.40
81321;DHT22;70785;52.570;5.638;2023-08-12T03:04:12;19.50;74.50
81321;DHT22;70785;52.570;5.638;2023-08-12T03:06:38;19.50;74.40
81321;DHT22;70785;52.570;5.638;2023-08-12T03:09:04;19.50;74.50
81321;DHT22;70785;52.570;5.638;2023-08-12T03:11:30;19.50;74.50
81321;DHT22;70785;52.570;5.638;2023-08-12T03:13:58;19.50;74.50
81321;DHT22;70785;52.570;5.638;2023-08-12T03:16:26;19.50;74.50
81321;DHT22;70785;52.570;5.638;2023-08-12T03:18:52;19.50;74.60
81321;DHT22;70785;52.570;5.638;2023-08-12T03:21:18;19.50;74.60
81321;DHT22;70785;52.570;5.638;2023-08-12T03:23:44;19.50;74.60
81321;DHT22;70785;52.570;5.638;2023-08-12T03:26:11;19.50;74.70
81321;DHT22;70785;52.570;5.638;2023-08-12T03:28:37;19.50;74.60
81321;DHT22;70785;52.570;5.638;2023-08-12T03:31:03;19.50;74.70
81321;DHT22;70785;52.570;5.638;2023-08-12T03:33:32;19.50;74.70
81321;DHT22;70785;52.570;5.638;2023-08-12T03:36:00;19.50;74.70
81321;DHT22;70785;52.570;5.638;2023-08-12T03:38:26;19.50;74.70
81321;DHT22;70785;52.570;5.638;2023-08-12T03:40:53;19.50;74.70
81321;DHT22;70785;52.570;5.638;2023-08-12T03:43:19;19.50;74.80
81321;DHT22;70785;52.570;5.638;2023-08-12T03:45:47;19.50;74.80
81321;DHT22;70785;52.570;5.638;2023-08-12T03:48:16;19.50;74.80
81321;DHT22;70785;52.570;5.638;2023-08-12T03:50:42;19.50;74.80
81321;DHT22;70785;52.570;5.638;2023-08-12T03:53:08;19.50;74.90
81321;DHT22;70785;52.570;5.638;2023-08-12T03:55:35;19.50;74.90
81321;DHT22;70785;52.570;5.638;2023-08-12T03:58:01;19.50;74.90
81321;DHT22;70785;52.570;5.638;2023-08-12T04:00:29;19.50;75.00
81321;DHT22;70785;52.570;5.638;2023-08-12T04:02:59;19.50;75.00
81321;DHT22;70785;52.570;5.638;2023-08-12T04:05:25;19.50;75.00
81321;DHT22;70785;52.570;5.638;2023-08-12T04:07:51;19.50;75.00
81321;DHT22;70785;52.570;5.638;2023-08-12T04:10:17;19.50;75.00
81321;DHT22;70785;52.570;5.638;2023-08-12T04:12:43;19.50;75.00
81321;DHT22;70785;52.570;5.638;2023-08-12T04:15:09;19.50;75.00
81321;DHT22;70785;52.570;5.638;2023-08-12T04:17:36;19.50;75.00
81321;DHT22;70785;52.570;5.638;2023-08-12T04:20:05;19.50;75.00
81321;DHT22;70785;52.570;5.638;2023-08-12T04:22:33;19.50;75.00
81321;DHT22;70785;52.570;5.638;2023-08-12T04:25:02;19.50;75.10
81321;DHT22;70785;52.570;5.638;2023-08-12T04:27:28;19.60;75.10
81321;DHT22;70785;52.570;5.638;2023-08-12T04:29:55;19.60;75.10
81321;DHT22;70785;52.570;5.638;2023-08-12T04:32:22;19.70;75.10
81321;DHT22;70785;52.570;5.638;2023-08-12T04:34:48;19.60;75.10
81321;DHT22;70785;52.570;5.638;2023-08-12T04:37:15;19.70;75.20
81321;DHT22;70785;52.570;5.638;2023-08-12T04:39:43;19.70;75.20
81321;DHT22;70785;52.570;5.638;2023-08-12T04:42:10;19.70;75.20
81321;DHT22;70785;52.570;5.638;2023-08-12T04:44:36;19.70;75.30
81321;DHT22;70785;52.570;5.638;2023-08-12T04:47:02;19.70;75.20
81321;DHT22;70785;52.570;5.638;2023-08-12T04:49:30;19.70;75.30
81321;DHT22;70785;52.570;5.638;2023-08-12T04:51:56;19.70;75.40
81321;DHT22;70785;52.570;5.638;2023-08-12T04:54:22;19.70;75.40
81321;DHT22;70785;52.570;5.638;2023-08-12T04:56:49;19.70;75.50
81321;DHT22;70785;52.570;5.638;2023-08-12T04:59:15;19.80;75.50
81321;DHT22;70785;52.570;5.638;2023-08-12T05:01:42;19.80;75.50
81321;DHT22;70785;52.570;5.638;2023-08-12T05:04:08;19.90;75.50
81321;DHT22;70785;52.570;5.638;2023-08-12T05:06:34;19.90;75.50
81321;DHT22;70785;52.570;5.638;2023-08-12T05:09:01;20.00;75.50
81321;DHT22;70785;52.570;5.638;2023-08-12T05:11:29;20.00;75.50
81321;DHT22;70785;52.570;5.638;2023-08-12T05:13:55;20.00;75.40
81321;DHT22;70785;52.570;5.638;2023-08-12T05:16:21;20.00;75.40
81321;DHT22;70785;52.570;5.638;2023-08-12T05:18:47;20.00;75.40
81321;DHT22;70785;52.570;5.638;2023-08-12T05:21:14;20.00;75.40
81321;DHT22;70785;52.570;5.638;2023-08-12T05:23:41;20.00;75.40
81321;DHT22;70785;52.570;5.638;2023-08-12T05:26:07;20.10;75.40
81321;DHT22;70785;52.570;5.638;2023-08-12T05:28:33;20.10;75.40
81321;DHT22;70785;52.570;5.638;2023-08-12T05:30:59;20.10;75.30
81321;DHT22;70785;52.570;5.638;2023-08-12T05:33:26;20.10;75.40
81321;DHT22;70785;52.570;5.638;2023-08-12T05:35:52;20.10;75.40
81321;DHT22;70785;52.570;5.638;2023-08-12T05:38:18;20.00;75.40
81321;DHT22;70785;52.570;5.638;2023-08-12T05:40:44;20.00;75.40
81321;DHT22;70785;52.570;5.638;2023-08-12T05:43:10;20.10;75.50
81321;DHT22;70785;52.570;5.638;2023-08-12T05:45:37;20.10;75.50
81321;DHT22;70785;52.570;5.638;2023-08-12T05:48:03;20.10;75.50
81321;DHT22;70785;52.570;5.638;2023-08-12T05:50:29;20.10;75.50
81321;DHT22;70785;52.570;5.638;2023-08-12T05:52:55;20.20;75.50
81321;DHT22;70785;52.570;5.638;2023-08-12T05:55:21;20.20;75.50
81321;DHT22;70785;52.570;5.638;2023-08-12T05:57:47;20.30;75.40
81321;DHT22;70785;52.570;5.638;2023-08-12T06:00:14;20.30;75.40
81321;DHT22;70785;52.570;5.638;2023-08-12T06:02:40;20.30;75.40
81321;DHT22;70785;52.570;5.638;2023-08-12T06:05:06;20.30;75.50
81321;DHT22;70785;52.570;5.638;2023-08-12T06:07:33;20.30;75.50
81321;DHT22;70785;52.570;5.638;2023-08-12T06:10:00;20.30;75.50
81321;DHT22;70785;52.570;5.638;2023-08-12T06:12:26;20.30;75.50
81321;DHT22;70785;52.570;5.638;2023-08-12T06:14:52;20.30;75.40
81321;DHT22;70785;52.570;5.638;2023-08-12T06:17:18;20.30;75.40
81321;DHT22;70785;52.570;5.638;2023-08-12T06:19:44;20.40;75.50
81321;DHT22;70785;52.570;5.638;2023-08-12T06:22:10;20.40;75.50
81321;DHT22;70785;52.570;5.638;2023-08-12T06:24:36;20.40;75.50
81321;DHT22;70785;52.570;5.638;2023-08-12T06:27:02;20.40;75.50
81321;DHT22;70785;52.570;5.638;2023-08-12T06:29:29;20.40;75.50
81321;DHT22;70785;52.570;5.638;2023-08-12T06:31:55;20.50;75.50
81321;DHT22;70785;52.570;5.638;2023-08-12T06:34:21;20.50;75.50
81321;DHT22;70785;52.570;5.638;2023-08-12T06:36:47;20.50;75.50
81321;DHT22;70785;52.570;5.638;2023-08-12T06:39:13;20.50;75.40
81321;DHT22;70785;52.570;5.638;2023-08-12T06:41:39;20.50;75.40
81321;DHT22;70785;52.570;5.638;2023-08-12T06:44:06;20.50;75.40
81321;DHT22;70785;52.570;5.638;2023-08-12T06:46:32;20.50;75.40
81321;DHT22;70785;52.570;5.638;2023-08-12T06:48:58;20.50;75.40
81321;DHT22;70785;52.570;5.638;2023-08-12T06:51:25;20.50;75.50
81321;DHT22;70785;52.570;5.638;2023-08-12T06:53:51;20.50;75.50
81321;DHT22;70785;52.570;5.638;2023-08-12T06:56:17;20.50;75.50
81321;DHT22;70785;52.570;5.638;2023-08-12T06:58:43;20.50;75.60
81321;DHT22;70785;52.570;5.638;2023-08-12T07:01:09;20.50;75.70
81321;DHT22;70785;52.570;5.638;2023-08-12T07:03:35;20.50;75.80
81321;DHT22;70785;52.570;5.638;2023-08-12T07:06:01;20.40;75.90
81321;DHT22;70785;52.570;5.638;2023-08-12T07:08:28;20.30;75.90
81321;DHT22;70785;52.570;5.638;2023-08-12T07:10:54;20.30;76.00
81321;DHT22;70785;52.570;5.638;2023-08-12T07:13:20;20.30;76.00
81321;DHT22;70785;52.570;5.638;2023-08-12T07:15:46;20.30;76.00
81321;DHT22;70785;52.570;5.638;2023-08-12T07:18:12;20.30;76.10
81321;DHT22;70785;52.570;5.638;2023-08-12T07:20:38;20.30;76.20
81321;DHT22;70785;52.570;5.638;2023-08-12T07:23:04;20.20;76.30
81321;DHT22;70785;52.570;5.638;2023-08-12T07:25:30;20.20;76.50
81321;DHT22;70785;52.570;5.638;2023-08-12T07:27:57;20.10;76.50
81321;DHT22;70785;52.570;5.638;2023-08-12T07:30:23;20.10;76.70
81321;DHT22;70785;52.570;5.638;2023-08-12T07:32:50;20.10;76.80
81321;DHT22;70785;52.570;5.638;2023-08-12T07:35:16;20.10;76.80
81321;DHT22;70785;52.570;5.638;2023-08-12T07:37:42;20.10;76.90
81321;DHT22;70785;52.570;5.638;2023-08-12T07:40:08;20.00;77.00
81321;DHT22;70785;52.570;5.638;2023-08-12T07:42:35;20.00;77.10
81321;DHT22;70785;52.570;5.638;2023-08-12T07:45:01;20.00;77.10
81321;DHT22;70785;52.570;5.638;2023-08-12T07:47:27;20.00;77.20
81321;DHT22;70785;52.570;5.638;2023-08-12T07:49:53;20.00;77.30
81321;DHT22;70785;52.570;5.638;2023-08-12T07:52:19;20.00;77.30
81321;DHT22;70785;52.570;5.638;2023-08-12T07:54:46;20.10;77.30
81321;DHT22;70785;52.570;5.638;2023-08-12T07:57:12;20.10;77.30
81321;DHT22;70785;52.570;5.638;2023-08-12T07:59:38;20.30;77.20
81321;DHT22;70785;52.570;5.638;2023-08-12T08:02:04;20.30;77.00
81321;DHT22;70785;52.570;5.638;2023-08-12T08:04:35;20.50;76.90
81321;DHT22;70785;52.570;5.638;2023-08-12T08:07:02;20.50;76.80
81321;DHT22;70785;52.570;5.638;2023-08-12T08:09:28;20.50;76.80
81321;DHT22;70785;52.570;5.638;2023-08-12T08:11:54;20.50;76.80
81321;DHT22;70785;52.570;5.638;2023-08-12T08:14:20;20.50;76.80
81321;DHT22;70785;52.570;5.638;2023-08-12T08:16:46;20.50;76.70
81321;DHT22;70785;52.570;5.638;2023-08-12T08:19:12;20.50;76.60
81321;DHT22;70785;52.570;5.638;2023-08-12T08:21:38;20.50;76.50
81321;DHT22;70785;52.570;5.638;2023-08-12T08:24:05;20.50;76.40
81321;DHT22;70785;52.570;5.638;2023-08-12T08:26:32;20.40;76.40
81321;DHT22;70785;52.570;5.638;2023-08-12T08:28:58;20.30;76.30
81321;DHT22;70785;52.570;5.638;2023-08-12T08:31:24;20.30;76.10
81321;DHT22;70785;52.570;5.638;2023-08-12T08:33:50;20.30;76.20
81321;DHT22;70785;52.570;5.638;2023-08-12T08:36:17;20.30;76.20
81321;DHT22;70785;52.570;5.638;2023-08-12T08:38:44;20.30;76.20
81321;DHT22;70785;52.570;5.638;2023-08-12T08:41:10;20.20;76.20
81321;DHT22;70785;52.570;5.638;2023-08-12T08:43:37;20.10;76.10
81321;DHT22;70785;52.570;5.638;2023-08-12T08:46:06;20.10;76.10
81321;DHT22;70785;52.570;5.638;2023-08-12T08:48:32;20.00;76.20
81321;DHT22;70785;52.570;5.638;2023-08-12T08:51:00;20.00;76.20
81321;DHT22;70785;52.570;5.638;2023-08-12T08:53:27;19.90;76.40
81321;DHT22;70785;52.570;5.638;2023-08-12T08:55:53;19.90;76.40
81321;DHT22;70785;52.570;5.638;2023-08-12T08:58:20;19.80;76.40
81321;DHT22;70785;52.570;5.638;2023-08-12T09:00:47;19.80;76.50
81321;DHT22;70785;52.570;5.638;2023-08-12T09:03:13;19.80;76.50
81321;DHT22;70785;52.570;5.638;2023-08-12T09:05:41;19.80;76.60
81321;DHT22;70785;52.570;5.638;2023-08-12T09:08:08;19.90;76.60
81321;DHT22;70785;52.570;5.638;2023-08-12T09:10:39;19.90;76.70
81321;DHT22;70785;52.570;5.638;2023-08-12T09:13:08;19.90;76.60
81321;DHT22;70785;52.570;5.638;2023-08-12T09:15:35;19.90;76.60
81321;DHT22;70785;52.570;5.638;2023-08-12T09:18:01;19.90;76.60
81321;DHT22;70785;52.570;5.638;2023-08-12T09:20:27;19.90;76.70
81321;DHT22;70785;52.570;5.638;2023-08-12T09:22:58;19.90;76.70
81321;DHT22;70785;52.570;5.638;2023-08-12T09:25:28;19.90;76.70
81321;DHT22;70785;52.570;5.638;2023-08-12T09:28:01;20.00;76.70
81321;DHT22;70785;52.570;5.638;2023-08-12T09:30:30;20.00;76.60
81321;DHT22;70785;52.570;5.638;2023-08-12T09:33:01;19.70;76.20
81321;DHT22;70785;52.570;5.638;2023-08-12T09:35:40;19.40;75.80
81321;DHT22;70785;52.570;5.638;2023-08-12T09:38:10;19.00;75.50
81321;DHT22;70785;52.570;5.638;2023-08-12T09:40:37;18.70;75.50
81321;DHT22;70785;52.570;5.638;2023-08-12T09:43:03;18.40;75.70
81321;DHT22;70785;52.570;5.638;2023-08-12T09:45:34;18.20;75.70
81321;DHT22;70785;52.570;5.638;2023-08-12T09:48:00;18.00;75.80
81321;DHT22;70785;52.570;5.638;2023-08-12T09:50:27;18.00;75.70
81321;DHT22;70785;52.570;5.638;2023-08-12T09:52:54;17.80;75.70
81321;DHT22;70785;52.570;5.638;2023-08-12T09:55:23;17.80;75.80
81321;DHT22;70785;52.570;5.638;2023-08-12T09:57:53;17.60;75.90
81321;DHT22;70785;52.570;5.638;2023-08-12T10:00:21;17.60;76.10
81321;DHT22;70785;52.570;5.638;2023-08-12T10:02:49;17.60;76.10
81321;DHT22;70785;52.570;5.638;2023-08-12T10:05:35;17.80;76.10
81321;DHT22;70785;52.570;5.638;2023-08-12T10:08:02;18.00;76.00
81321;DHT22;70785;52.570;5.638;2023-08-12T10:10:32;18.10;75.70
81321;DHT22;70785;52.570;5.638;2023-08-12T10:12:59;18.30;75.50
81321;DHT22;70785;52.570;5.638;2023-08-12T10:15:25;18.40;75.50
81321;DHT22;70785;52.570;5.638;2023-08-12T10:17:52;18.40;75.30
81321;DHT22;70785;52.570;5.638;2023-08-12T10:20:22;18.30;75.30
81321;DHT22;70785;52.570;5.638;2023-08-12T10:22:49;18.40;75.20
81321;DHT22;70785;52.570;5.638;2023-08-12T10:25:18;18.50;75.20
81321;DHT22;70785;52.570;5.638;2023-08-12T10:27:44;18.60;74.90
81321;DHT22;70785;52.570;5.638;2023-08-12T10:30:12;18.70;74.80
81321;DHT22;70785;52.570;5.638;2023-08-12T10:32:39;18.70;74.70
81321;DHT22;70785;52.570;5.638;2023-08-12T10:35:06;18.80;74.40
81321;DHT22;70785;52.570;5.638;2023-08-12T10:37:33;18.90;74.40
81321;DHT22;70785;52.570;5.638;2023-08-12T10:40:03;19.00;74.30
81321;DHT22;70785;52.570;5.638;2023-08-12T10:42:43;19.10;74.50
81321;DHT22;70785;52.570;5.638;2023-08-12T10:45:11;19.30;74.40
81321;DHT22;70785;52.570;5.638;2023-08-12T10:50:25;19.50;73.40
81321;DHT22;70785;52.570;5.638;2023-08-12T10:52:53;19.70;73.50
81321;DHT22;70785;52.570;5.638;2023-08-12T10:55:21;19.70;73.10
81321;DHT22;70785;52.570;5.638;2023-08-12T10:57:49;19.70;72.80
81321;DHT22;70785;52.570;5.638;2023-08-12T11:00:19;19.70;72.70
81321;DHT22;70785;52.570;5.638;2023-08-12T11:02:55;19.80;72.70
81321;DHT22;70785;52.570;5.638;2023-08-12T11:05:23;19.90;72.30
81321;DHT22;70785;52.570;5.638;2023-08-12T11:08:00;20.00;72.30
81321;DHT22;70785;52.570;5.638;2023-08-12T11:10:34;20.00;72.00
81321;DHT22;70785;52.570;5.638;2023-08-12T11:13:00;20.20;71.70
81321;DHT22;70785;52.570;5.638;2023-08-12T11:15:40;20.30;71.50
81321;DHT22;70785;52.570;5.638;2023-08-12T11:18:09;20.30;70.20
81321;DHT22;70785;52.570;5.638;2023-08-12T11:20:36;20.30;70.50
81321;DHT22;70785;52.570;5.638;2023-08-12T11:23:04;20.40;70.50
81321;DHT22;70785;52.570;5.638;2023-08-12T11:25:32;20.50;70.10
81321;DHT22;70785;52.570;5.638;2023-08-12T11:27:58;20.50;69.80
81321;DHT22;70785;52.570;5.638;2023-08-12T11:30:25;20.50;69.80
81321;DHT22;70785;52.570;5.638;2023-08-12T11:32:52;20.60;69.30
81321;DHT22;70785;52.570;5.638;2023-08-12T11:35:21;20.80;69.00
81321;DHT22;70785;52.570;5.638;2023-08-12T11:37:49;20.90;69.20
81321;DHT22;70785;52.570;5.638;2023-08-12T11:40:16;21.00;68.90
81321;DHT22;70785;52.570;5.638;2023-08-12T11:42:45;21.10;69.10
81321;DHT22;70785;52.570;5.638;2023-08-12T11:45:11;21.30;69.20
81321;DHT22;70785;52.570;5.638;2023-08-12T11:47:39;21.40;69.00
81321;DHT22;70785;52.570;5.638;2023-08-12T11:50:07;21.40;68.70
81321;DHT22;70785;52.570;5.638;2023-08-12T11:52:35;21.50;68.60
81321;DHT22;70785;52.570;5.638;2023-08-12T11:55:02;21.50;68.70
81321;DHT22;70785;52.570;5.638;2023-08-12T11:57:28;21.70;68.30
81321;DHT22;70785;52.570;5.638;2023-08-12T12:00:06;21.70;67.90
81321;DHT22;70785;52.570;5.638;2023-08-12T12:02:52;21.60;68.10
81321;DHT22;70785;52.570;5.638;2023-08-12T12:05:28;21.70;68.10
81321;DHT22;70785;52.570;5.638;2023-08-12T12:07:56;21.70;68.10
81321;DHT22;70785;52.570;5.638;2023-08-12T12:10:30;21.70;67.70
81321;DHT22;70785;52.570;5.638;2023-08-12T12:12:56;21.70;66.90
81321;DHT22;70785;52.570;5.638;2023-08-12T12:15:23;21.60;66.90
81321;DHT22;70785;52.570;5.638;2023-08-12T12:17:50;21.50;66.50
81321;DHT22;70785;52.570;5.638;2023-08-12T12:20:16;21.50;66.00
81321;DHT22;70785;52.570;5.638;2023-08-12T12:22:44;21.60;66.10
81321;DHT22;70785;52.570;5.638;2023-08-12T12:25:12;21.70;66.00
81321;DHT22;70785;52.570;5.638;2023-08-12T12:27:39;21.80;65.40
81321;DHT22;70785;52.570;5.638;2023-08-12T12:30:10;21.90;65.10
81321;DHT22;70785;52.570;5.638;2023-08-12T12:32:37;21.90;65.20
81321;DHT22;70785;52.570;5.638;2023-08-12T12:35:04;22.10;65.50
81321;DHT22;70785;52.570;5.638;2023-08-12T12:37:30;22.20;64.80
81321;DHT22;70785;52.570;5.638;2023-08-12T12:39:56;22.20;64.40
81321;DHT22;70785;52.570;5.638;2023-08-12T12:42:22;22.30;64.30
81321;DHT22;70785;52.570;5.638;2023-08-12T12:44:48;22.30;64.00
81321;DHT22;70785;52.570;5.638;2023-08-12T12:47:14;22.50;64.00
81321;DHT22;70785;52.570;5.638;2023-08-12T12:49:40;22.50;64.10
81321;DHT22;70785;52.570;5.638;2023-08-12T12:52:10;22.70;64.20
81321;DHT22;70785;52.570;5.638;2023-08-12T12:54:36;22.80;64.00
81321;DHT22;70785;52.570;5.638;2023-08-12T12:57:02;22.90;62.50
81321;DHT22;70785;52.570;5.638;2023-08-12T12:59:30;22.90;62.80
81321;DHT22;70785;52.570;5.638;2023-08-12T13:01:56;23.00;62.80
81321;DHT22;70785;52.570;5.638;2023-08-12T13:04:22;23.00;62.50
81321;DHT22;70785;52.570;5.638;2023-08-12T13:06:48;23.00;62.70
81321;DHT22;70785;52.570;5.638;2023-08-12T13:09:14;23.20;62.80
81321;DHT22;70785;52.570;5.638;2023-08-12T13:11:40;23.40;62.70
81321;DHT22;70785;52.570;5.638;2023-08-12T13:14:07;23.40;62.20
81321;DHT22;70785;52.570;5.638;2023-08-12T13:16:33;23.40;61.80
81321;DHT22;70785;52.570;5.638;2023-08-12T13:18:59;23.40;61.40
81321;DHT22;70785;52.570;5.638;2023-08-12T13:21:26;23.30;61.50
81321;DHT22;70785;52.570;5.638;2023-08-12T13:23:52;23.30;61.60
81321;DHT22;70785;52.570;5.638;2023-08-12T13:26:19;23.40;61.80
81321;DHT22;70785;52.570;5.638;2023-08-12T13:28:46;23.60;61.70
81321;DHT22;70785;52.570;5.638;2023-08-12T13:31:12;23.60;61.30
81321;DHT22;70785;52.570;5.638;2023-08-12T13:33:38;23.60;60.80
81321;DHT22;70785;52.570;5.638;2023-08-12T13:36:04;23.60;60.90
81321;DHT22;70785;52.570;5.638;2023-08-12T13:38:31;23.60;60.40
81321;DHT22;70785;52.570;5.638;2023-08-12T13:40:57;23.60;60.30
81321;DHT22;70785;52.570;5.638;2023-08-12T13:43:23;23.60;60.10
81321;DHT22;70785;52.570;5.638;2023-08-12T13:45:49;23.80;59.60
81321;DHT22;70785;52.570;5.638;2023-08-12T13:48:15;23.80;59.20
81321;DHT22;70785;52.570;5.638;2023-08-12T13:50:41;23.80;59.20
81321;DHT22;70785;52.570;5.638;2023-08-12T13:53:07;24.00;59.00
81321;DHT22;70785;52.570;5.638;2023-08-12T13:55:33;24.10;58.80
81321;DHT22;70785;52.570;5.638;2023-08-12T13:57:59;24.40;59.20
81321;DHT22;70785;52.570;5.638;2023-08-12T14:00:26;24.70;59.60
81321;DHT22;70785;52.570;5.638;2023-08-12T14:02:52;25.10;59.30
81321;DHT22;70785;52.570;5.638;2023-08-12T14:05:18;25.50;58.50
81321;DHT22;70785;52.570;5.638;2023-08-12T14:07:44;25.80;58.40
81321;DHT22;70785;52.570;5.638;2023-08-12T14:10:10;26.40;57.20
81321;DHT22;70785;52.570;5.638;2023-08-12T14:12:36;26.40;55.50
81321;DHT22;70785;52.570;5.638;2023-08-12T14:15:03;26.50;53.90
81321;DHT22;70785;52.570;5.638;2023-08-12T14:17:29;26.40;54.70
81321;DHT22;70785;52.570;5.638;2023-08-12T14:19:55;26.60;54.40
81321;DHT22;70785;52.570;5.638;2023-08-12T14:22:21;26.70;54.60
81321;DHT22;70785;52.570;5.638;2023-08-12T14:24:47;26.90;54.10
81321;DHT22;70785;52.570;5.638;2023-08-12T14:27:15;26.90;53.60
81321;DHT22;70785;52.570;5.638;2023-08-12T14:29:42;26.80;53.40
81321;DHT22;70785;52.570;5.638;2023-08-12T14:32:08;26.80;53.10
81321;DHT22;70785;52.570;5.638;2023-08-12T14:34:35;26.80;53.30
81321;DHT22;70785;52.570;5.638;2023-08-12T14:37:03;27.00;53.20
81321;DHT22;70785;52.570;5.638;2023-08-12T14:39:29;27.30;51.50
81321;DHT22;70785;52.570;5.638;2023-08-12T14:41:55;27.20;51.30
81321;DHT22;70785;52.570;5.638;2023-08-12T14:44:21;27.30;51.70
81321;DHT22;70785;52.570;5.638;2023-08-12T14:46:48;27.50;52.10
81321;DHT22;70785;52.570;5.638;2023-08-12T14:49:14;27.90;51.90
81321;DHT22;70785;52.570;5.638;2023-08-12T14:51:40;28.00;51.50
81321;DHT22;70785;52.570;5.638;2023-08-12T14:54:06;27.90;50.80
81321;DHT22;70785;52.570;5.638;2023-08-12T14:56:33;27.90;51.10
81321;DHT22;70785;52.570;5.638;2023-08-12T14:58:59;27.90;50.80
81321;DHT22;70785;52.570;5.638;2023-08-12T15:01:25;28.00;50.90
81321;DHT22;70785;52.570;5.638;2023-08-12T15:03:54;28.00;50.10
81321;DHT22;70785;52.570;5.638;2023-08-12T15:06:21;27.80;50.30
81321;DHT22;70785;52.570;5.638;2023-08-12T15:08:48;27.90;50.30
81321;DHT22;70785;52.570;5.638;2023-08-12T15:11:15;27.90;50.00
81321;DHT22;70785;52.570;5.638;2023-08-12T15:13:41;27.90;50.20
81321;DHT22;70785;52.570;5.638;2023-08-12T15:16:07;27.90;49.80
81321;DHT22;70785;52.570;5.638;2023-08-12T15:18:33;27.70;49.80
81321;DHT22;70785;52.570;5.638;2023-08-12T15:20:59;27.70;50.40
81321;DHT22;70785;52.570;5.638;2023-08-12T15:23:25;27.80;50.10
81321;DHT22;70785;52.570;5.638;2023-08-12T15:25:51;27.80;50.00
81321;DHT22;70785;52.570;5.638;2023-08-12T15:28:17;27.80;50.20
81321;DHT22;70785;52.570;5.638;2023-08-12T15:30:46;27.90;50.00
81321;DHT22;70785;52.570;5.638;2023-08-12T15:33:13;27.70;49.70
81321;DHT22;70785;52.570;5.638;2023-08-12T15:35:39;27.50;49.80
81321;DHT22;70785;52.570;5.638;2023-08-12T15:38:05;27.30;50.00